Milnor, Pennsylvania
Current Conditions -  °F | °C
As of 3:53 PM on Tuesday 25 Nov 2014 (Local Time) from KHGR Reporting Station
Clear Clear  
Wind Chill: 54°   Ceiling: Unl
Heat Index: 54°   Visibility: 10mi
Dew Point: 27°   Wind: 7mph
Humidity: 35%   Direction: 260°W
Pressure: 30.03"   Gusts: NA
Location:  39.7874°N, 77.754°W
Report Text: KHGR 252053Z 26006KT 10SM CLR 12/M03 A3003 RMK AO2 SLP178 T01221028 55004
Loading
Personal Weather Stations






























Interactive Weather Map New forecast layout! Learn more

10-Day Weather Forecast

Advertisements
Track Severe Weather on mobile